Alna, Maine
Current Conditions -  °F | °C
As of 2:53 AM on Friday 28 Nov 2014 (Local Time) from KIWI Reporting Station
Overcast Overcast  
Wind Chill: -5°   Ceiling: 9000
Heat Index: -5°   Visibility: 10mi
Dew Point: -7°   Wind: 3mph
Humidity: 85%   Direction: NA
Pressure: 30.04"   Gusts: NA
Location:  44.11°N, 69.6°W
Report Text: KIWI 280753Z AUTO VRB03KT 10SM BKN090 OVC110 M05/M07 A3004 RMK AO2 SLP174 T10501072
Loading
Personal Weather Stations






























Interactive Weather Map New forecast layout! Learn more

10-Day Weather Forecast

Advertisements
Track Severe Weather on mobile